Time;durP1;ratioP1;P1;durP2;ratioP2;P2;SDS_P1;SDS_P2;PMS_P1;PMS_P2;Temp;Humidity;BMP_temperature;BMP_pressure;BME280_temperature;BME280_humidity;BME280_pressure;Samples;Min_cycle;Max_cycle;Signal;HPM_P1;HPM_P2
2023/09/03 11:44:23;;;;;;;5.47;5.07;;;23.60;89.70;;;;;;6159649;23;20477;-95
2023/09/03 11:46:59;;;;;;;4.90;4.40;;;23.60;89.70;;;;;;6156075;23;20450;-91
2023/09/03 11:49:26;;;;;;;7.67;4.90;;;23.60;89.70;;;;;;6155718;23;20501;-91
2023/09/03 11:51:54;;;;;;;5.70;5.20;;;23.60;89.80;;;;;;6155941;23;20411;-91
2023/09/03 11:54:24;;;;;;;6.73;5.60;;;23.70;89.70;;;;;;6156415;23;20406;-90
2023/09/03 11:56:51;;;;;;;9.30;5.20;;;23.60;89.50;;;;;;6156144;23;20439;-90
2023/09/03 11:59:19;;;;;;;6.20;5.37;;;23.60;89.30;;;;;;6155559;23;20407;-93
2023/09/03 12:01:47;;;;;;;6.03;5.30;;;23.60;89.30;;;;;;6156402;23;20412;-91
2023/09/03 12:04:14;;;;;;;5.67;5.10;;;23.60;89.40;;;;;;6155459;23;20417;-90
2023/09/03 12:06:42;;;;;;;5.93;4.97;;;23.60;89.30;;;;;;6157003;23;20458;-91
2023/09/03 12:09:09;;;;;;;6.57;5.40;;;23.70;89.70;;;;;;6158489;23;20421;-89
2023/09/03 12:11:36;;;;;;;6.60;4.70;;;23.70;89.90;;;;;;6158030;23;20408;-95
2023/09/03 12:14:03;;;;;;;6.30;5.70;;;23.70;89.80;;;;;;6156469;23;20568;-93
2023/09/03 12:16:30;;;;;;;6.37;5.70;;;23.70;89.70;;;;;;6156282;23;20499;-93
2023/09/03 12:19:00;;;;;;;7.40;5.13;;;23.70;89.70;;;;;;6157213;23;20906;-96
2023/09/03 12:21:32;;;;;;;11.50;5.20;;;23.70;89.60;;;;;;6158708;23;20395;-90
2023/09/03 12:23:59;;;;;;;6.10;5.20;;;23.70;89.60;;;;;;6155995;23;20454;-93
2023/09/03 12:26:26;;;;;;;6.00;5.50;;;23.70;90.00;;;;;;6156337;23;20439;-94
2023/09/03 12:28:54;;;;;;;5.03;4.60;;;23.70;89.70;;;;;;6156062;23;20435;-93
2023/09/03 12:31:22;;;;;;;6.83;5.50;;;23.70;89.70;;;;;;6155967;23;20891;-94
2023/09/03 12:33:50;;;;;;;6.57;5.83;;;23.70;89.70;;;;;;6155835;23;20407;-94
2023/09/03 12:36:20;;;;;;;9.47;5.33;;;23.70;89.70;;;;;;6155875;23;20408;-94
2023/09/03 12:38:57;;;;;;;7.13;5.77;;;23.70;89.70;;;;;;6155639;23;20505;-94
2023/09/03 12:41:26;;;;;;;6.97;4.90;;;23.70;89.50;;;;;;6155890;23;20388;-94
2023/09/03 12:43:54;;;;;;;6.37;5.33;;;23.70;89.50;;;;;;6156255;23;20754;-94
2023/09/03 12:46:21;;;;;;;12.20;6.67;;;23.70;89.60;;;;;;6155672;23;20475;-94
2023/09/03 12:48:48;;;;;;;6.17;5.57;;;23.80;89.80;;;;;;6155707;23;20414;-95
2023/09/03 12:51:16;;;;;;;5.83;4.87;;;23.70;89.70;;;;;;6156166;23;20810;-92
2023/09/03 12:53:47;;;;;;;17.27;6.20;;;23.70;89.80;;;;;;6156001;23;20440;-91
2023/09/03 12:56:14;;;;;;;7.13;5.20;;;23.70;89.70;;;;;;6158313;23;20403;-96
2023/09/03 12:58:43;;;;;;;7.90;6.00;;;23.70;89.70;;;;;;6158006;23;20411;-95
2023/09/03 13:01:10;;;;;;;9.23;5.70;;;23.70;89.70;;;;;;6157956;23;20415;-95
2023/09/03 13:03:37;;;;;;;7.10;5.70;;;23.70;89.80;;;;;;6158028;23;20480;-95
2023/09/03 13:06:04;;;;;;;7.10;5.40;;;23.70;89.70;;;;;;6158588;23;20434;-93
2023/09/03 13:08:32;;;;;;;6.57;5.90;;;23.70;89.80;;;;;;6157621;23;20426;-95
2023/09/03 13:11:00;;;;;;;9.07;4.97;;;23.50;89.80;;;;;;6157629;23;20412;-94
2023/09/03 13:13:27;;;;;;;8.63;5.40;;;23.70;90.00;;;;;;6157639;23;20432;-94
2023/09/03 13:15:55;;;;;;;5.73;5.23;;;23.70;89.90;;;;;;6157472;23;20498;-94
2023/09/03 13:18:22;;;;;;;13.00;5.70;;;23.70;89.70;;;;;;6158062;23;20432;-94
2023/09/03 13:20:49;;;;;;;5.37;4.87;;;23.70;89.60;;;;;;6158084;23;20488;-94
2023/09/03 13:23:16;;;;;;;5.90;4.87;;;23.70;89.50;;;;;;6157449;23;20888;-94
2023/09/03 13:25:43;;;;;;;5.87;5.27;;;23.70;89.60;;;;;;6157373;23;20400;-94
2023/09/03 13:28:12;;;;;;;6.50;5.07;;;23.70;89.60;;;;;;6157607;23;20475;-95
2023/09/03 13:30:39;;;;;;;9.00;5.00;;;23.70;89.50;;;;;;6157468;23;20411;-94
2023/09/03 13:33:07;;;;;;;6.77;5.03;;;23.70;89.50;;;;;;6158703;23;20903;-93
2023/09/03 13:35:36;;;;;;;5.57;5.07;;;23.70;89.50;;;;;;6157856;23;20462;-94
2023/09/03 13:38:03;;;;;;;5.83;5.13;;;23.70;89.50;;;;;;6157098;23;20411;-94
2023/09/03 13:40:30;;;;;;;7.33;5.17;;;23.70;89.40;;;;;;6157315;23;20415;-93
2023/09/03 13:42:57;;;;;;;9.63;5.27;;;23.80;89.50;;;;;;6157016;23;20422;-94
2023/09/03 13:45:26;;;;;;;6.67;5.50;;;23.70;89.50;;;;;;6157024;23;20474;-93
2023/09/03 13:47:53;;;;;;;7.17;5.23;;;23.70;89.40;;;;;;6156975;23;20449;-94
2023/09/03 13:50:20;;;;;;;6.83;4.33;;;23.70;89.20;;;;;;6157504;23;20495;-94
2023/09/03 13:52:47;;;;;;;6.30;5.67;;;23.70;89.20;;;;;;6157274;23;20496;-94
2023/09/03 13:55:14;;;;;;;4.90;4.50;;;23.70;89.10;;;;;;6156741;23;20487;-93
2023/09/03 13:57:41;;;;;;;5.47;4.97;;;23.70;89.00;;;;;;6157060;23;20490;-93
2023/09/03 14:00:09;;;;;;;6.53;4.83;;;23.70;88.90;;;;;;6157764;23;20418;-93
2023/09/03 14:02:37;;;;;;;8.57;4.70;;;23.70;88.80;;;;;;6156777;23;20500;-94
2023/09/03 14:05:04;;;;;;;5.33;4.83;;;23.70;88.50;;;;;;6157404;23;20404;-94
2023/09/03 14:07:31;;;;;;;5.60;4.53;;;23.70;88.50;;;;;;6157413;23;20519;-94
2023/09/03 14:09:58;;;;;;;4.33;3.93;;;23.70;88.40;;;;;;6157031;23;20404;-95
2023/09/03 14:12:34;;;;;;;4.43;4.03;;;23.70;88.40;;;;;;6156894;23;20404;-93
2023/09/03 14:15:00;;;;;;;5.37;4.83;;;23.70;88.30;;;;;;6156870;23;20467;-94
2023/09/03 14:17:27;;;;;;;5.03;4.53;;;23.70;88.30;;;;;;6156805;23;20439;-94
2023/09/03 14:19:58;;;;;;;5.27;4.77;;;23.70;88.20;;;;;;6156709;23;20439;-95
2023/09/03 14:22:28;;;;;;;5.63;4.83;;;23.70;88.10;;;;;;6156518;23;20439;-94
2023/09/03 14:24:55;;;;;;;4.77;4.47;;;23.70;88.10;;;;;;6156973;23;20917;-94
2023/09/03 14:27:21;;;;;;;4.40;4.00;;;23.70;88.20;;;;;;6156632;23;20966;-95
2023/09/03 14:29:48;;;;;;;3.83;3.60;;;23.70;88.10;;;;;;6156711;23;20435;-94
2023/09/03 14:32:15;;;;;;;6.47;3.90;;;23.70;87.90;;;;;;6156875;23;20408;-94
2023/09/03 14:34:43;;;;;;;9.40;4.27;;;23.70;88.00;;;;;;6156363;23;20446;-95
2023/09/03 14:37:11;;;;;;;5.00;3.70;;;23.70;88.00;;;;;;6156730;23;20432;-93
2023/09/03 14:39:38;;;;;;;5.50;5.00;;;23.70;88.00;;;;;;6156342;23;20421;-93
2023/09/03 14:42:05;;;;;;;5.00;4.60;;;23.70;87.90;;;;;;6156520;23;20494;-94
2023/09/03 14:44:32;;;;;;;4.63;4.23;;;23.70;87.90;;;;;;6156214;23;20552;-94
2023/09/03 14:46:59;;;;;;;5.93;3.83;;;23.70;87.90;;;;;;6156437;23;20463;-93
2023/09/03 14:49:37;;;;;;;4.23;3.60;;;23.70;87.80;;;;;;6156369;23;20404;-94
2023/09/03 14:52:04;;;;;;;3.80;3.50;;;23.70;87.70;;;;;;6156800;23;20388;-94
2023/09/03 14:54:33;;;;;;;5.80;3.93;;;23.70;87.70;;;;;;6157292;23;20408;-94
2023/09/03 14:57:00;;;;;;;3.73;3.47;;;23.70;87.60;;;;;;6156422;23;20395;-94
2023/09/03 14:59:27;;;;;;;3.67;3.37;;;23.70;87.60;;;;;;6156373;23;20484;-93
2023/09/03 15:01:54;;;;;;;3.83;3.47;;;23.70;87.60;;;;;;6156389;23;20486;-94
2023/09/03 15:04:21;;;;;;;4.73;3.70;;;23.70;87.60;;;;;;6156268;23;20518;-94
2023/09/03 15:06:48;;;;;;;3.00;2.80;;;23.70;87.60;;;;;;6156637;23;20812;-94
2023/09/03 15:09:16;;;;;;;3.70;3.40;;;23.70;87.60;;;;;;6156090;23;20408;-93
2023/09/03 15:11:45;;;;;;;3.23;3.03;;;23.70;87.60;;;;;;6156289;23;20479;-94
2023/09/03 15:14:12;;;;;;;3.70;3.10;;;23.70;87.60;;;;;;6156443;23;20755;-94
2023/09/03 15:16:38;;;;;;;4.20;3.03;;;23.70;87.60;;;;;;6156833;23;20485;-94
2023/09/03 15:19:05;;;;;;;3.40;3.10;;;23.70;87.60;;;;;;6155822;23;20422;-94
2023/09/03 15:21:32;;;;;;;3.57;3.30;;;23.70;87.60;;;;;;6156521;23;20479;-94
2023/09/03 15:23:59;;;;;;;3.10;2.90;;;23.70;87.60;;;;;;6156519;23;20427;-94
2023/09/03 15:26:26;;;;;;;3.23;2.90;;;23.70;87.60;;;;;;6156411;23;20404;-94
2023/09/03 15:28:54;;;;;;;3.20;3.00;;;23.70;87.60;;;;;;6156292;23;20534;-94
2023/09/03 15:31:21;;;;;;;3.37;3.07;;;23.70;87.60;;;;;;6156463;23;20435;-94
2023/09/03 15:33:48;;;;;;;3.13;2.83;;;23.70;87.70;;;;;;6156197;23;20498;-94
2023/09/03 15:36:15;;;;;;;3.73;3.10;;;23.70;87.70;;;;;;6156506;23;20493;-93
2023/09/03 15:38:42;;;;;;;2.47;2.27;;;23.70;87.70;;;;;;6156084;23;20482;-94
2023/09/03 15:41:08;;;;;;;2.53;2.43;;;23.70;87.70;;;;;;6156212;23;20432;-93
2023/09/03 15:43:35;;;;;;;4.57;3.20;;;23.70;87.70;;;;;;6156200;23;20407;-93
2023/09/03 15:46:04;;;;;;;3.13;2.93;;;23.70;87.70;;;;;;6155975;23;20435;-94
2023/09/03 15:48:30;;;;;;;3.97;2.63;;;23.70;87.70;;;;;;6156205;23;20531;-94
2023/09/03 15:50:57;;;;;;;2.93;2.73;;;23.70;87.70;;;;;;6156462;23;20472;-93
2023/09/03 15:53:25;;;;;;;2.83;2.63;;;23.70;87.80;;;;;;6156291;23;20447;-93
2023/09/03 15:55:55;;;;;;;3.13;2.60;;;23.70;87.80;;;;;;6155784;23;20506;-95
2023/09/03 15:58:22;;;;;;;2.50;2.30;;;23.70;87.90;;;;;;6156168;23;20515;-94
2023/09/03 16:00:50;;;;;;;2.63;2.43;;;23.70;87.80;;;;;;6156252;23;20491;-94
2023/09/03 16:03:20;;;;;;;2.73;2.53;;;23.70;87.80;;;;;;6155907;23;20427;-93
2023/09/03 16:05:47;;;;;;;2.30;2.10;;;23.70;87.80;;;;;;6156611;23;20404;-94
2023/09/03 16:08:14;;;;;;;2.27;2.07;;;23.70;87.90;;;;;;6156168;23;20531;-94
2023/09/03 16:10:40;;;;;;;2.30;2.10;;;23.70;87.80;;;;;;6156147;23;20510;-94
2023/09/03 16:13:07;;;;;;;2.60;2.40;;;23.70;87.80;;;;;;6156269;23;20498;-94
2023/09/03 16:15:40;;;;;;;2.53;2.33;;;23.70;87.80;;;;;;6155790;23;20440;-93
2023/09/03 16:18:07;;;;;;;2.17;2.07;;;23.60;87.60;;;;;;6156424;23;20451;-94
2023/09/03 16:20:36;;;;;;;2.30;2.10;;;23.70;87.70;;;;;;6156628;23;20408;-94
2023/09/03 16:23:03;;;;;;;1.90;1.80;;;23.70;87.70;;;;;;6156299;23;20403;-95
2023/09/03 16:25:30;;;;;;;2.63;2.43;;;23.70;87.70;;;;;;6156175;23;20407;-94
2023/09/03 16:27:57;;;;;;;3.00;2.30;;;23.70;87.70;;;;;;6156562;23;20471;-93
2023/09/03 16:30:24;;;;;;;2.70;2.50;;;23.70;87.70;;;;;;6157871;23;20438;-93
2023/09/03 16:32:50;;;;;;;2.33;2.23;;;23.70;87.70;;;;;;6158900;23;20739;-94
2023/09/03 16:35:19;;;;;;;2.40;2.13;;;23.70;87.70;;;;;;6157898;23;20723;-94
2023/09/03 16:37:47;;;;;;;3.40;2.20;;;23.70;87.70;;;;;;6158268;23;20494;-94
2023/09/03 16:40:14;;;;;;;2.63;2.43;;;23.80;87.80;;;;;;6157798;23;20490;-93
2023/09/03 16:42:41;;;;;;;2.27;2.17;;;23.70;87.70;;;;;;6157770;23;20721;-94
2023/09/03 16:45:09;;;;;;;2.73;2.53;;;23.70;87.70;;;;;;6157763;23;20438;-94
2023/09/03 16:47:36;;;;;;;2.23;1.93;;;23.70;87.70;;;;;;6157864;23;20514;-95
2023/09/03 16:50:03;;;;;;;2.67;2.47;;;23.70;87.70;;;;;;6158556;23;20417;-93
2023/09/03 16:52:30;;;;;;;2.13;2.00;;;23.70;87.70;;;;;;6159024;23;20432;-96
2023/09/03 16:54:59;;;;;;;1.93;1.83;;;23.70;87.70;;;;;;6157005;23;20499;-94
2023/09/03 16:57:27;;;;;;;2.40;2.13;;;23.70;87.70;;;;;;6158712;23;20448;-93
2023/09/03 16:59:54;;;;;;;1.93;1.83;;;23.70;87.80;;;;;;6157709;23;20399;-93
2023/09/03 17:02:21;;;;;;;5.33;2.27;;;23.70;87.80;;;;;;6157943;23;20489;-94
2023/09/03 17:04:48;;;;;;;2.80;1.97;;;23.70;87.80;;;;;;6158001;23;20403;-93
2023/09/03 17:07:15;;;;;;;4.23;2.00;;;23.70;87.80;;;;;;6158603;23;20407;-94
2023/09/03 17:09:41;;;;;;;2.03;1.83;;;23.70;87.80;;;;;;6158068;23;20486;-93
2023/09/03 17:12:12;;;;;;;2.10;2.00;;;23.70;87.90;;;;;;6157384;23;20407;-92
2023/09/03 17:14:39;;;;;;;4.83;2.10;;;23.70;87.90;;;;;;6158847;23;20475;-94
2023/09/03 17:17:06;;;;;;;3.20;2.40;;;23.70;88.00;;;;;;6158132;23;20494;-94
2023/09/03 17:19:35;;;;;;;1.80;1.70;;;23.70;88.10;;;;;;6157461;23;20396;-94
2023/09/03 17:22:01;;;;;;;2.10;1.90;;;23.70;88.10;;;;;;6157153;23;20977;-93
2023/09/03 17:24:28;;;;;;;2.10;1.90;;;23.70;88.90;;;;;;6157601;23;20945;-94
2023/09/03 17:26:55;;;;;;;2.23;2.03;;;23.70;88.00;;;;;;6157845;23;20492;-94
2023/09/03 17:29:23;;;;;;;2.03;1.87;;;23.80;88.20;;;;;;6157548;23;20446;-92
2023/09/03 17:31:51;;;;;;;2.37;2.17;;;23.70;88.20;;;;;;6157668;23;20490;-90
2023/09/03 17:34:18;;;;;;;2.00;1.90;;;23.70;88.30;;;;;;6157194;23;20950;-89
2023/09/03 17:36:45;;;;;;;2.47;2.23;;;23.70;88.20;;;;;;6156626;23;20423;-90
2023/09/03 17:39:12;;;;;;;2.13;1.93;;;23.70;88.20;;;;;;6157220;23;20790;-90
2023/09/03 17:41:39;;;;;;;3.67;1.60;;;23.70;88.30;;;;;;6156267;23;20408;-88
2023/09/03 17:44:06;;;;;;;4.50;2.47;;;23.70;88.20;;;;;;6156675;23;20408;-88
2023/09/03 17:46:34;;;;;;;2.27;2.07;;;23.70;88.20;;;;;;6157368;23;20419;-90
2023/09/03 17:49:01;;;;;;;4.07;2.40;;;23.70;88.10;;;;;;6156666;23;21018;-91
2023/09/03 17:51:28;;;;;;;2.10;1.90;;;23.80;88.30;;;;;;6157083;23;20506;-90
2023/09/03 17:53:55;;;;;;;1.87;1.67;;;23.70;88.10;;;;;;6156902;23;20411;-91
2023/09/03 17:56:22;;;;;;;3.10;1.70;;;23.70;88.10;;;;;;6157096;23;20735;-91
2023/09/03 17:58:49;;;;;;;3.67;2.23;;;23.70;88.20;;;;;;6156763;23;20408;-90
2023/09/03 18:01:17;;;;;;;2.23;2.03;;;23.70;88.20;;;;;;6156782;23;20407;-91
2023/09/03 18:03:45;;;;;;;2.00;1.80;;;23.60;88.20;;;;;;6156417;23;20423;-91
2023/09/03 18:06:12;;;;;;;1.87;1.77;;;23.70;88.30;;;;;;6156955;23;20482;-88
2023/09/03 18:08:39;;;;;;;4.07;2.27;;;23.70;88.30;;;;;;6156688;23;20493;-90
2023/09/03 18:11:12;;;;;;;2.67;2.10;;;23.70;88.30;;;;;;6156756;23;20435;-90
2023/09/03 18:13:39;;;;;;;1.90;1.80;;;23.70;88.30;;;;;;6156700;23;20727;-89
2023/09/03 18:16:06;;;;;;;1.97;1.83;;;23.70;88.30;;;;;;6156534;23;20724;-91
2023/09/03 18:18:32;;;;;;;1.70;1.60;;;23.70;89.10;;;;;;6156417;23;20404;-91
2023/09/03 18:21:01;;;;;;;3.80;1.90;;;23.70;88.30;;;;;;6156393;23;20450;-89
2023/09/03 18:23:27;;;;;;;2.07;1.97;;;23.70;88.30;;;;;;6156695;23;20960;-89
2023/09/03 18:25:54;;;;;;;3.03;2.30;;;23.70;88.30;;;;;;6156880;23;20443;-90
2023/09/03 18:28:21;;;;;;;1.80;1.70;;;23.70;88.30;;;;;;6156550;23;20440;-90
2023/09/03 18:30:48;;;;;;;2.00;1.90;;;23.80;88.40;;;;;;6156430;23;20974;-89
2023/09/03 18:33:14;;;;;;;2.33;2.13;;;23.70;88.30;;;;;;6156920;23;20769;-91
2023/09/03 18:35:41;;;;;;;2.00;1.90;;;23.70;89.10;;;;;;6156777;23;20408;-91
2023/09/03 18:38:09;;;;;;;2.00;1.80;;;23.70;88.30;;;;;;6156507;23;20908;-89
2023/09/03 18:40:37;;;;;;;2.60;2.40;;;23.70;88.30;;;;;;6156999;23;20412;-90
2023/09/03 18:43:04;;;;;;;5.80;1.50;;;23.70;88.30;;;;;;6156829;23;20772;-92
2023/09/03 18:45:30;;;;;;;3.10;1.90;;;23.70;88.30;;;;;;6156576;23;20441;-91
2023/09/03 18:47:57;;;;;;;8.07;1.73;;;23.70;88.40;;;;;;6156724;23;20784;-90
2023/09/03 18:50:24;;;;;;;2.43;2.10;;;23.70;88.40;;;;;;6156442;23;20410;-92
2023/09/03 18:52:52;;;;;;;1.97;1.43;;;23.70;88.40;;;;;;6156223;23;20406;-92
2023/09/03 18:55:21;;;;;;;2.07;1.60;;;23.70;88.40;;;;;;6156960;23;20462;-92
2023/09/03 18:57:47;;;;;;;2.70;1.73;;;23.70;88.40;;;;;;6156626;23;20400;-90
2023/09/03 19:00:14;;;;;;;2.27;2.07;;;23.70;88.40;;;;;;6156565;23;20506;-93
2023/09/03 19:02:42;;;;;;;2.13;1.67;;;23.60;88.20;;;;;;6156544;23;20506;-92
2023/09/03 19:05:09;;;;;;;2.30;1.80;;;23.70;88.40;;;;;;6156677;23;20491;-92
2023/09/03 19:07:38;;;;;;;1.87;1.77;;;23.70;88.30;;;;;;6156737;23;20477;-91
2023/09/03 19:10:06;;;;;;;1.73;1.63;;;23.70;88.50;;;;;;6157141;23;20483;-95
2023/09/03 19:12:36;;;;;;;2.03;1.70;;;23.70;89.30;;;;;;6157891;23;20404;-94
2023/09/03 19:15:03;;;;;;;5.30;2.13;;;23.70;88.40;;;;;;6156598;23;20411;-93
2023/09/03 19:17:30;;;;;;;3.10;1.80;;;23.70;89.20;;;;;;6157508;23;20820;-96
2023/09/03 19:19:57;;;;;;;1.90;1.80;;;23.70;88.50;;;;;;6156666;23;20799;-95
2023/09/03 19:22:24;;;;;;;1.97;1.77;;;23.80;88.60;;;;;;6156695;23;20438;-95
2023/09/03 19:24:53;;;;;;;2.47;1.70;;;23.60;88.40;;;;;;6156953;23;20868;-95
2023/09/03 19:27:24;;;;;;;2.33;1.77;;;23.70;88.50;;;;;;6160311;23;20419;-95
2023/09/03 19:29:52;;;;;;;1.80;1.70;;;23.70;88.50;;;;;;6173911;23;20505;-95
2023/09/03 19:33:05;;;;;;;3.13;1.77;;;23.80;89.40;;;;;;6189883;23;20430;-96
2023/09/03 19:35:32;;;;;;;8.70;2.00;;;23.70;88.50;;;;;;6186533;23;20721;-94
2023/09/03 19:38:00;;;;;;;2.33;1.60;;;23.70;88.60;;;;;;6186811;23;20406;-91
2023/09/03 19:40:27;;;;;;;2.67;2.47;;;23.60;88.50;;;;;;6185891;23;20410;-90
2023/09/03 19:42:54;;;;;;;2.17;2.00;;;23.70;88.60;;;;;;6185937;23;20405;-91
2023/09/03 19:45:23;;;;;;;2.13;2.03;;;23.70;88.50;;;;;;6186219;23;20490;-92
2023/09/03 19:47:50;;;;;;;4.00;2.03;;;23.70;89.50;;;;;;6186095;23;20449;-90
2023/09/03 19:50:17;;;;;;;3.40;1.90;;;23.80;88.60;;;;;;6185762;23;20446;-91
2023/09/03 19:52:44;;;;;;;1.80;1.70;;;23.70;88.50;;;;;;6185813;23;20442;-92
2023/09/03 19:55:11;;;;;;;2.03;1.93;;;23.70;88.50;;;;;;6185906;23;20493;-92
2023/09/03 19:57:38;;;;;;;6.00;1.90;;;23.70;88.50;;;;;;6186206;23;20490;-92
2023/09/03 20:00:09;;;;;;;2.50;1.77;;;23.70;88.50;;;;;;6186353;23;20414;-92
2023/09/03 20:02:37;;;;;;;2.00;1.80;;;23.70;88.50;;;;;;6185939;23;20447;-92
2023/09/03 20:05:04;;;;;;;2.30;2.10;;;23.80;88.70;;;;;;6187772;23;20402;-90
2023/09/03 20:07:31;;;;;;;2.33;2.13;;;23.70;88.60;;;;;;6187857;23;20787;-91
2023/09/03 20:09:57;;;;;;;2.60;2.23;;;23.70;88.80;;;;;;6188150;23;20537;-92
2023/09/03 20:12:24;;;;;;;1.70;1.60;;;23.70;88.60;;;;;;6187620;23;20978;-92
2023/09/03 20:14:51;;;;;;;2.40;2.20;;;23.70;88.60;;;;;;6187868;23;20409;-92
2023/09/03 20:17:18;;;;;;;1.80;1.70;;;23.70;88.60;;;;;;6187669;23;20437;-90
2023/09/03 20:19:47;;;;;;;2.43;2.23;;;23.70;88.60;;;;;;6187346;23;20457;-89
2023/09/03 20:22:14;;;;;;;2.83;1.70;;;23.80;88.60;;;;;;6187550;23;20425;-91
2023/09/03 20:24:40;;;;;;;2.00;1.83;;;23.70;88.50;;;;;;6187798;23;20410;-89
2023/09/03 20:27:09;;;;;;;1.90;1.80;;;23.70;88.50;;;;;;6187344;23;20441;-89
2023/09/03 20:29:36;;;;;;;2.30;2.10;;;23.70;88.50;;;;;;6186911;23;21213;-90
2023/09/03 20:32:03;;;;;;;1.70;1.60;;;23.70;88.50;;;;;;6186937;23;20461;-91
2023/09/03 20:34:32;;;;;;;2.07;1.97;;;23.70;88.50;;;;;;6187193;23;20482;-89
2023/09/03 20:37:02;;;;;;;2.37;1.87;;;23.70;88.50;;;;;;6186911;23;20493;-90
2023/09/03 20:39:28;;;;;;;2.10;1.80;;;23.70;88.50;;;;;;6187615;23;20502;-89
2023/09/03 20:41:54;;;;;;;1.90;1.80;;;23.80;88.60;;;;;;6187469;23;20410;-91
2023/09/03 20:44:21;;;;;;;3.93;2.03;;;23.70;88.50;;;;;;6187264;23;20498;-91
2023/09/03 20:46:48;;;;;;;2.37;1.93;;;23.70;88.50;;;;;;6187498;23;20174;-89
2023/09/03 20:49:15;;;;;;;1.70;1.60;;;23.80;88.60;;;;;;6187361;23;20527;-89
2023/09/03 20:51:41;;;;;;;4.53;1.83;;;23.70;88.50;;;;;;6187283;23;20446;-91
2023/09/03 20:54:09;;;;;;;1.63;1.53;;;23.70;88.40;;;;;;6187102;23;20410;-90
2023/09/03 20:56:36;;;;;;;2.13;2.03;;;23.70;88.40;;;;;;6187426;23;20402;-90
2023/09/03 20:59:03;;;;;;;1.77;1.67;;;23.70;88.40;;;;;;6187689;23;20441;-89
2023/09/03 21:01:30;;;;;;;2.27;2.17;;;23.70;88.50;;;;;;6187606;23;20792;-91
2023/09/03 21:03:57;;;;;;;1.90;1.70;;;23.70;88.40;;;;;;6187474;23;20429;-90
2023/09/03 21:06:24;;;;;;;2.53;2.33;;;23.80;88.60;;;;;;6187485;23;20497;-89
2023/09/03 21:08:51;;;;;;;2.03;1.93;;;23.70;88.40;;;;;;6187417;23;20434;-89
2023/09/03 21:11:19;;;;;;;1.80;1.57;;;23.70;88.50;;;;;;6187113;23;20410;-89
2023/09/03 21:13:46;;;;;;;2.00;1.90;;;23.70;88.50;;;;;;6187540;23;20399;-89
2023/09/03 21:16:12;;;;;;;2.03;1.93;;;23.60;88.30;;;;;;6187157;23;20493;-89
2023/09/03 21:18:39;;;;;;;1.60;1.50;;;23.60;88.30;;;;;;6187473;23;20437;-91
2023/09/03 21:21:06;;;;;;;1.93;1.83;;;23.60;88.30;;;;;;6187279;23;20407;-91
2023/09/03 21:23:34;;;;;;;2.13;2.03;;;23.60;88.30;;;;;;6186964;23;20410;-90
2023/09/03 21:26:04;;;;;;;2.13;2.03;;;23.70;88.50;;;;;;6187266;23;20403;-91
2023/09/03 21:28:32;;;;;;;2.03;1.93;;;23.60;88.30;;;;;;6187434;23;20434;-90
2023/09/03 21:30:59;;;;;;;2.07;1.90;;;23.60;88.40;;;;;;6186828;23;20847;-90
2023/09/03 21:33:26;;;;;;;1.83;1.73;;;23.70;88.50;;;;;;6187074;23;20809;-89
2023/09/03 21:35:52;;;;;;;2.53;2.00;;;23.70;88.50;;;;;;6187422;23;20428;-89
2023/09/03 21:38:19;;;;;;;1.97;1.67;;;23.60;88.30;;;;;;6187281;23;20434;-90
2023/09/03 21:40:46;;;;;;;2.00;1.90;;;23.60;88.30;;;;;;6186819;23;20488;-91
2023/09/03 21:43:13;;;;;;;2.37;1.83;;;23.70;88.50;;;;;;6186925;23;20434;-89
2023/09/03 21:45:41;;;;;;;1.83;1.73;;;23.60;88.30;;;;;;6187136;23;20508;-91
2023/09/03 21:48:10;;;;;;;2.13;2.03;;;23.60;88.30;;;;;;6187271;23;20402;-90
2023/09/03 21:50:37;;;;;;;2.10;2.00;;;23.60;88.30;;;;;;6187025;23;20821;-90
2023/09/03 21:53:04;;;;;;;3.20;1.83;;;23.60;88.30;;;;;;6186791;23;20435;-89
2023/09/03 21:55:31;;;;;;;1.60;1.50;;;23.60;88.30;;;;;;6187368;23;20407;-90
2023/09/03 21:57:59;;;;;;;2.13;1.93;;;23.60;88.30;;;;;;6187072;23;20398;-89
2023/09/03 22:00:25;;;;;;;1.80;1.70;;;23.70;88.40;;;;;;6187019;23;20413;-89
2023/09/03 22:02:54;;;;;;;2.43;2.23;;;23.60;88.30;;;;;;6186539;23;20428;-91
2023/09/03 22:05:20;;;;;;;2.00;1.80;;;23.60;88.20;;;;;;6186939;23;20406;-90
2023/09/03 22:07:47;;;;;;;1.97;1.77;;;23.60;88.20;;;;;;6186657;23;20403;-89
2023/09/03 22:10:14;;;;;;;1.93;1.73;;;23.60;88.20;;;;;;6186955;23;20557;-89
2023/09/03 22:12:41;;;;;;;1.97;1.87;;;23.60;88.20;;;;;;6186740;23;20742;-90
2023/09/03 22:15:09;;;;;;;2.30;2.10;;;23.60;88.20;;;;;;6186855;23;20509;-90
2023/09/03 22:17:35;;;;;;;2.03;1.90;;;23.60;88.20;;;;;;6186848;23;20762;-90
2023/09/03 22:20:06;;;;;;;2.07;1.90;;;23.60;88.20;;;;;;6186867;23;20496;-89
2023/09/03 22:22:33;;;;;;;2.07;1.80;;;23.60;88.20;;;;;;6186882;23;20392;-88
2023/09/03 22:25:00;;;;;;;2.03;1.93;;;23.70;88.30;;;;;;6187089;23;20489;-91
2023/09/03 22:27:27;;;;;;;1.93;1.83;;;23.60;88.20;;;;;;6186630;23;20916;-91
2023/09/03 22:29:54;;;;;;;2.10;2.00;;;23.60;88.20;;;;;;6186676;23;20537;-90
2023/09/03 22:32:21;;;;;;;2.30;2.10;;;23.60;88.20;;;;;;6186618;23;20458;-90
2023/09/03 22:34:47;;;;;;;1.90;1.70;;;23.60;88.20;;;;;;6186751;23;20483;-91
2023/09/03 22:37:15;;;;;;;1.70;1.60;;;23.60;88.20;;;;;;6186406;23;20481;-89
2023/09/03 22:39:42;;;;;;;2.17;1.80;;;23.60;88.20;;;;;;6186511;23;20494;-90
2023/09/03 22:42:09;;;;;;;1.90;1.73;;;23.60;88.20;;;;;;6186782;23;20497;-90
2023/09/03 22:44:36;;;;;;;1.80;1.70;;;23.50;88.10;;;;;;6186071;23;20407;-89
2023/09/03 22:47:06;;;;;;;2.00;1.80;;;23.60;88.20;;;;;;6186665;23;20410;-88
2023/09/03 22:49:32;;;;;;;2.20;2.00;;;23.60;88.20;;;;;;6186360;23;20434;-90
2023/09/03 22:51:59;;;;;;;1.77;1.67;;;23.60;88.20;;;;;;6186481;23;20492;-90
2023/09/03 22:54:27;;;;;;;1.57;1.47;;;23.50;88.10;;;;;;6186693;23;20776;-91
2023/09/03 22:56:54;;;;;;;1.73;1.63;;;23.50;88.10;;;;;;6186222;23;20406;-90
2023/09/03 22:59:21;;;;;;;1.90;1.80;;;23.50;88.10;;;;;;6186505;23;20413;-91
2023/09/03 23:01:47;;;;;;;1.67;1.57;;;23.60;88.20;;;;;;6186227;23;20489;-89
2023/09/03 23:04:14;;;;;;;1.87;1.77;;;23.50;88.10;;;;;;6186098;23;20399;-89
2023/09/03 23:06:41;;;;;;;1.60;1.50;;;23.50;88.10;;;;;;6186456;23;20747;-90
2023/09/03 23:09:08;;;;;;;1.90;1.80;;;23.50;88.10;;;;;;6186010;23;20726;-90
2023/09/03 23:11:36;;;;;;;2.43;2.23;;;23.60;88.20;;;;;;6186292;23;20403;-89
2023/09/03 23:14:03;;;;;;;2.03;1.90;;;23.60;88.20;;;;;;6186232;23;20407;-89
2023/09/03 23:16:30;;;;;;;2.13;2.00;;;23.50;88.20;;;;;;6186469;23;20954;-90
2023/09/03 23:18:56;;;;;;;2.10;2.00;;;23.50;88.10;;;;;;6185978;23;20494;-89
2023/09/03 23:21:23;;;;;;;1.77;1.60;;;23.50;89.00;;;;;;6185919;23;20394;-89
2023/09/03 23:23:50;;;;;;;1.87;1.40;;;23.50;88.20;;;;;;6186399;23;20402;-90
2023/09/03 23:26:18;;;;;;;1.73;1.63;;;23.50;88.10;;;;;;6186377;23;20700;-91
2023/09/03 23:28:46;;;;;;;1.60;1.40;;;23.50;88.10;;;;;;6185963;23;20399;-88
2023/09/03 23:31:14;;;;;;;1.80;1.70;;;23.50;88.10;;;;;;6185585;23;20458;-89
2023/09/03 23:33:41;;;;;;;1.80;1.70;;;23.50;88.10;;;;;;6185975;23;20419;-90
2023/09/03 23:36:09;;;;;;;1.60;1.50;;;23.50;88.10;;;;;;6185894;23;20957;-90
2023/09/03 23:38:36;;;;;;;1.97;1.87;;;23.50;88.10;;;;;;6185455;23;20422;-90
2023/09/03 23:41:03;;;;;;;1.90;1.80;;;23.50;88.10;;;;;;6186292;23;20427;-90
2023/09/03 23:43:29;;;;;;;1.80;1.70;;;23.50;88.10;;;;;;6186187;23;20421;-88
2023/09/03 23:45:58;;;;;;;1.70;1.60;;;23.50;88.20;;;;;;6186222;23;20417;-88
2023/09/03 23:48:24;;;;;;;2.50;1.70;;;23.50;88.10;;;;;;6186074;23;20407;-88
2023/09/03 23:50:51;;;;;;;1.77;1.67;;;23.50;88.10;;;;;;6186125;23;20525;-89
2023/09/03 23:53:18;;;;;;;2.00;1.90;;;23.50;88.90;;;;;;6186111;23;20403;-90
2023/09/03 23:55:45;;;;;;;2.03;1.60;;;23.50;88.10;;;;;;6185857;23;20445;-88
2023/09/03 23:58:12;;;;;;;1.50;1.40;;;23.50;88.10;;;;;;6186137;23;20434;-89
